sensor_id;sensor_type;location;lat;lon;timestamp;pressure;altitude;pressure_sealevel;temperature;humidity
48796;BME280;34607;48.520;-1.330;2023-06-22T06:59:03;100362.16;;;20.10;87.37
48796;BME280;34607;48.520;-1.330;2023-06-22T07:01:30;100361.19;;;20.15;88.13
48796;BME280;34607;48.520;-1.330;2023-06-22T07:04:01;100362.84;;;20.18;87.49
48796;BME280;34607;48.520;-1.330;2023-06-22T07:06:28;100362.38;;;20.39;88.02
48796;BME280;34607;48.520;-1.330;2023-06-22T07:08:57;100369.81;;;20.58;87.82
48796;BME280;34607;48.520;-1.330;2023-06-22T07:11:24;100370.97;;;20.84;87.47
48796;BME280;34607;48.520;-1.330;2023-06-22T07:13:51;100370.06;;;20.83;85.78
48796;BME280;34607;48.520;-1.330;2023-06-22T07:16:20;100366.25;;;20.59;84.99
48796;BME280;34607;48.520;-1.330;2023-06-22T07:18:48;100370.09;;;20.82;85.00
48796;BME280;34607;48.520;-1.330;2023-06-22T07:21:15;100378.34;;;21.02;85.02
48796;BME280;34607;48.520;-1.330;2023-06-22T07:23:42;100380.06;;;21.05;84.53
48796;BME280;34607;48.520;-1.330;2023-06-22T07:26:09;100383.16;;;21.19;83.56
48796;BME280;34607;48.520;-1.330;2023-06-22T07:28:38;100390.69;;;21.33;82.97
48796;BME280;34607;48.520;-1.330;2023-06-22T07:31:06;100387.72;;;21.12;83.10
48796;BME280;34607;48.520;-1.330;2023-06-22T07:33:34;100394.56;;;21.20;83.16
48796;BME280;34607;48.520;-1.330;2023-06-22T07:36:02;100396.88;;;21.32;81.80
48796;BME280;34607;48.520;-1.330;2023-06-22T07:38:33;100401.56;;;21.21;81.81
48796;BME280;34607;48.520;-1.330;2023-06-22T07:41:00;100398.00;;;21.23;82.16
48796;BME280;34607;48.520;-1.330;2023-06-22T07:43:28;100391.72;;;21.27;82.18
48796;BME280;34607;48.520;-1.330;2023-06-22T07:45:56;100399.47;;;21.66;81.53
48796;BME280;34607;48.520;-1.330;2023-06-22T07:48:23;100402.38;;;21.87;80.63
48796;BME280;34607;48.520;-1.330;2023-06-22T07:50:51;100405.94;;;21.84;80.58
48796;BME280;34607;48.520;-1.330;2023-06-22T07:53:19;100405.25;;;22.09;80.16
48796;BME280;34607;48.520;-1.330;2023-06-22T07:55:46;100403.69;;;22.58;80.05
48796;BME280;34607;48.520;-1.330;2023-06-22T07:58:13;100406.91;;;22.68;78.00
48796;BME280;34607;48.520;-1.330;2023-06-22T08:00:41;100410.59;;;22.89;77.37
48796;BME280;34607;48.520;-1.330;2023-06-22T08:03:08;100418.81;;;23.08;75.93
48796;BME280;34607;48.520;-1.330;2023-06-22T08:05:35;100415.59;;;22.98;75.84
48796;BME280;34607;48.520;-1.330;2023-06-22T08:08:04;100416.19;;;23.08;76.84
48796;BME280;34607;48.520;-1.330;2023-06-22T08:10:31;100412.16;;;23.47;75.12
48796;BME280;34607;48.520;-1.330;2023-06-22T08:12:58;100419.88;;;23.53;74.20
48796;BME280;34607;48.520;-1.330;2023-06-22T08:15:26;100423.16;;;23.09;73.79
48796;BME280;34607;48.520;-1.330;2023-06-22T08:17:53;100422.75;;;22.68;74.87
48796;BME280;34607;48.520;-1.330;2023-06-22T08:20:20;100424.47;;;22.69;75.45
48796;BME280;34607;48.520;-1.330;2023-06-22T08:22:47;100419.28;;;22.66;75.90
48796;BME280;34607;48.520;-1.330;2023-06-22T08:25:16;100432.09;;;22.52;76.68
48796;BME280;34607;48.520;-1.330;2023-06-22T08:27:45;100427.03;;;22.44;77.09
48796;BME280;34607;48.520;-1.330;2023-06-22T08:30:14;100429.84;;;22.66;77.35
48796;BME280;34607;48.520;-1.330;2023-06-22T08:32:41;100437.41;;;23.04;77.37
48796;BME280;34607;48.520;-1.330;2023-06-22T08:35:08;100438.13;;;23.59;75.52
48796;BME280;34607;48.520;-1.330;2023-06-22T08:37:36;100414.75;;;23.48;74.70
48796;BME280;34607;48.520;-1.330;2023-06-22T08:40:06;100435.50;;;24.08;75.89
48796;BME280;34607;48.520;-1.330;2023-06-22T08:42:36;100443.56;;;24.27;72.80
48796;BME280;34607;48.520;-1.330;2023-06-22T08:45:04;100430.88;;;24.13;72.96
48796;BME280;34607;48.520;-1.330;2023-06-22T08:47:31;100446.41;;;24.44;72.54
48796;BME280;34607;48.520;-1.330;2023-06-22T08:49:58;100433.19;;;24.89;72.20
48796;BME280;34607;48.520;-1.330;2023-06-22T08:52:27;100443.75;;;25.11;69.75
48796;BME280;34607;48.520;-1.330;2023-06-22T08:54:54;100444.34;;;25.17;71.44
48796;BME280;34607;48.520;-1.330;2023-06-22T08:57:22;100436.63;;;25.73;69.64
48796;BME280;34607;48.520;-1.330;2023-06-22T08:59:50;100445.19;;;26.17;68.16
48796;BME280;34607;48.520;-1.330;2023-06-22T09:02:18;100450.81;;;25.91;66.99
48796;BME280;34607;48.520;-1.330;2023-06-22T09:04:45;100446.13;;;25.97;67.13
48796;BME280;34607;48.520;-1.330;2023-06-22T09:07:13;100455.97;;;25.95;67.08
48796;BME280;34607;48.520;-1.330;2023-06-22T09:09:40;100457.06;;;25.50;68.43
48796;BME280;34607;48.520;-1.330;2023-06-22T09:12:08;100458.41;;;25.60;69.42
48796;BME280;34607;48.520;-1.330;2023-06-22T09:14:35;100458.66;;;25.34;69.18
48796;BME280;34607;48.520;-1.330;2023-06-22T09:17:04;100459.91;;;25.66;69.09
48796;BME280;34607;48.520;-1.330;2023-06-22T09:19:31;100459.16;;;25.83;67.42
48796;BME280;34607;48.520;-1.330;2023-06-22T09:21:58;100459.56;;;25.74;69.77
48796;BME280;34607;48.520;-1.330;2023-06-22T09:24:26;100475.09;;;25.63;69.14
48796;BME280;34607;48.520;-1.330;2023-06-22T09:26:53;100473.38;;;25.80;69.50
48796;BME280;34607;48.520;-1.330;2023-06-22T09:29:20;100480.44;;;25.82;69.28
48796;BME280;34607;48.520;-1.330;2023-06-22T09:31:47;100488.69;;;25.34;68.73
48796;BME280;34607;48.520;-1.330;2023-06-22T09:34:15;100480.75;;;24.70;70.76
48796;BME280;34607;48.520;-1.330;2023-06-22T09:36:46;100485.00;;;24.50;71.95
48796;BME280;34607;48.520;-1.330;2023-06-22T09:39:13;100490.34;;;24.94;71.97
48796;BME280;34607;48.520;-1.330;2023-06-22T09:41:40;100472.34;;;25.45;70.28
48796;BME280;34607;48.520;-1.330;2023-06-22T09:44:07;100483.84;;;25.44;70.04
48796;BME280;34607;48.520;-1.330;2023-06-22T09:46:34;100486.88;;;25.14;71.07
48796;BME280;34607;48.520;-1.330;2023-06-22T09:49:01;100488.44;;;25.18;72.43
48796;BME280;34607;48.520;-1.330;2023-06-22T09:51:29;100488.56;;;25.37;71.04
48796;BME280;34607;48.520;-1.330;2023-06-22T09:53:59;100451.47;;;25.56;71.73
48796;BME280;34607;48.520;-1.330;2023-06-22T09:56:26;100498.78;;;26.45;70.27
48796;BME280;34607;48.520;-1.330;2023-06-22T09:58:53;100491.41;;;26.32;69.46
48796;BME280;34607;48.520;-1.330;2023-06-22T10:01:21;100491.69;;;26.64;70.05
48796;BME280;34607;48.520;-1.330;2023-06-22T10:03:48;100487.84;;;27.06;69.34
48796;BME280;34607;48.520;-1.330;2023-06-22T10:06:15;100497.16;;;27.15;68.03
48796;BME280;34607;48.520;-1.330;2023-06-22T10:08:44;100496.88;;;27.39;67.96
48796;BME280;34607;48.520;-1.330;2023-06-22T10:11:17;100497.88;;;27.71;67.96
48796;BME280;34607;48.520;-1.330;2023-06-22T10:13:44;100502.34;;;28.04;68.56
48796;BME280;34607;48.520;-1.330;2023-06-22T10:16:11;100498.00;;;28.35;66.55
48796;BME280;34607;48.520;-1.330;2023-06-22T10:18:38;100500.63;;;28.03;66.21
48796;BME280;34607;48.520;-1.330;2023-06-22T10:21:05;100505.09;;;28.02;65.79
48796;BME280;34607;48.520;-1.330;2023-06-22T10:23:32;100489.88;;;28.05;66.69
48796;BME280;34607;48.520;-1.330;2023-06-22T10:26:01;100495.69;;;28.45;65.72
48796;BME280;34607;48.520;-1.330;2023-06-22T10:28:28;100506.75;;;28.37;65.39
48796;BME280;34607;48.520;-1.330;2023-06-22T10:30:55;100511.22;;;28.52;65.73
48796;BME280;34607;48.520;-1.330;2023-06-22T10:33:22;100512.34;;;28.48;64.52
48796;BME280;34607;48.520;-1.330;2023-06-22T10:35:49;100520.44;;;28.63;64.85
48796;BME280;34607;48.520;-1.330;2023-06-22T10:38:16;100518.13;;;28.56;65.40
48796;BME280;34607;48.520;-1.330;2023-06-22T10:40:43;100527.75;;;28.59;65.15
48796;BME280;34607;48.520;-1.330;2023-06-22T10:43:11;100521.72;;;28.71;64.49
48796;BME280;34607;48.520;-1.330;2023-06-22T10:45:38;100530.66;;;28.54;64.16
48796;BME280;34607;48.520;-1.330;2023-06-22T10:48:05;100523.75;;;28.18;64.82
48796;BME280;34607;48.520;-1.330;2023-06-22T10:50:32;100522.31;;;28.45;63.91
48796;BME280;34607;48.520;-1.330;2023-06-22T10:52:59;100522.97;;;28.32;63.56
48796;BME280;34607;48.520;-1.330;2023-06-22T10:55:26;100520.94;;;28.53;63.65
48796;BME280;34607;48.520;-1.330;2023-06-22T10:57:53;100513.44;;;28.44;63.67
48796;BME280;34607;48.520;-1.330;2023-06-22T11:00:22;100515.28;;;28.60;63.49
48796;BME280;34607;48.520;-1.330;2023-06-22T11:02:49;100532.91;;;28.78;63.88
48796;BME280;34607;48.520;-1.330;2023-06-22T11:05:16;100523.25;;;28.91;63.10
48796;BME280;34607;48.520;-1.330;2023-06-22T11:07:43;100541.50;;;28.83;63.08
48796;BME280;34607;48.520;-1.330;2023-06-22T11:10:10;100536.00;;;28.86;63.82
48796;BME280;34607;48.520;-1.330;2023-06-22T11:12:38;100531.44;;;28.88;63.20
48796;BME280;34607;48.520;-1.330;2023-06-22T11:15:05;100532.44;;;29.02;63.28
48796;BME280;34607;48.520;-1.330;2023-06-22T11:17:34;100536.50;;;28.93;63.61
48796;BME280;34607;48.520;-1.330;2023-06-22T11:20:01;100528.59;;;28.91;63.12
48796;BME280;34607;48.520;-1.330;2023-06-22T11:22:35;100538.47;;;29.05;63.58
48796;BME280;34607;48.520;-1.330;2023-06-22T11:25:02;100530.78;;;29.15;62.07
48796;BME280;34607;48.520;-1.330;2023-06-22T11:27:29;100525.81;;;29.09;61.86
48796;BME280;34607;48.520;-1.330;2023-06-22T11:29:57;100533.25;;;28.72;62.79
48796;BME280;34607;48.520;-1.330;2023-06-22T11:32:24;100533.34;;;28.70;62.19
48796;BME280;34607;48.520;-1.330;2023-06-22T11:34:52;100537.97;;;28.83;63.44
48796;BME280;34607;48.520;-1.330;2023-06-22T11:37:19;100530.00;;;29.13;61.62
48796;BME280;34607;48.520;-1.330;2023-06-22T11:39:46;100527.72;;;29.07;62.61
48796;BME280;34607;48.520;-1.330;2023-06-22T11:42:14;100540.75;;;29.11;61.80
48796;BME280;34607;48.520;-1.330;2023-06-22T11:44:41;100509.47;;;29.15;62.92
48796;BME280;34607;48.520;-1.330;2023-06-22T11:47:08;100539.41;;;29.20;61.06
48796;BME280;34607;48.520;-1.330;2023-06-22T11:49:35;100540.38;;;29.03;62.11
48796;BME280;34607;48.520;-1.330;2023-06-22T11:52:05;100543.28;;;28.99;61.45
48796;BME280;34607;48.520;-1.330;2023-06-22T11:54:32;100545.50;;;29.06;61.91
48796;BME280;34607;48.520;-1.330;2023-06-22T11:56:59;100538.09;;;29.27;61.07
48796;BME280;34607;48.520;-1.330;2023-06-22T11:59:26;100542.13;;;29.35;61.65
48796;BME280;34607;48.520;-1.330;2023-06-22T12:01:53;100542.09;;;29.65;60.69
48796;BME280;34607;48.520;-1.330;2023-06-22T12:04:20;100544.28;;;29.58;60.40
48796;BME280;34607;48.520;-1.330;2023-06-22T12:06:47;100547.78;;;29.44;61.25
48796;BME280;34607;48.520;-1.330;2023-06-22T12:09:15;100541.75;;;29.41;60.31
48796;BME280;34607;48.520;-1.330;2023-06-22T12:11:42;100545.44;;;28.92;60.07
48796;BME280;34607;48.520;-1.330;2023-06-22T12:14:09;100550.38;;;28.68;60.95
48796;BME280;34607;48.520;-1.330;2023-06-22T12:16:37;100549.19;;;29.20;61.38
48796;BME280;34607;48.520;-1.330;2023-06-22T12:19:04;100553.03;;;29.46;59.16
48796;BME280;34607;48.520;-1.330;2023-06-22T12:21:31;100547.28;;;29.38;59.14
48796;BME280;34607;48.520;-1.330;2023-06-22T12:23:58;100540.25;;;29.51;59.32
48796;BME280;34607;48.520;-1.330;2023-06-22T12:26:26;100545.03;;;29.91;57.37
48796;BME280;34607;48.520;-1.330;2023-06-22T12:28:53;100550.19;;;29.63;56.68
48796;BME280;34607;48.520;-1.330;2023-06-22T12:31:20;100556.19;;;28.90;56.18
48796;BME280;34607;48.520;-1.330;2023-06-22T12:33:47;100549.75;;;28.94;55.77
48796;BME280;34607;48.520;-1.330;2023-06-22T12:36:15;100546.28;;;28.92;56.66
48796;BME280;34607;48.520;-1.330;2023-06-22T12:38:42;100560.59;;;28.91;57.65
48796;BME280;34607;48.520;-1.330;2023-06-22T12:41:09;100566.22;;;29.01;57.07
48796;BME280;34607;48.520;-1.330;2023-06-22T12:43:38;100562.78;;;29.31;55.60
48796;BME280;34607;48.520;-1.330;2023-06-22T12:46:05;100547.28;;;29.22;55.86
48796;BME280;34607;48.520;-1.330;2023-06-22T12:48:32;100569.41;;;29.54;55.30
48796;BME280;34607;48.520;-1.330;2023-06-22T12:50:59;100568.38;;;29.57;55.38
48796;BME280;34607;48.520;-1.330;2023-06-22T12:53:26;100568.38;;;29.57;54.77
48796;BME280;34607;48.520;-1.330;2023-06-22T12:55:53;100567.16;;;29.32;55.17
48796;BME280;34607;48.520;-1.330;2023-06-22T12:58:20;100577.59;;;29.21;55.07
48796;BME280;34607;48.520;-1.330;2023-06-22T13:00:49;100576.81;;;29.49;54.69
48796;BME280;34607;48.520;-1.330;2023-06-22T13:03:16;100577.81;;;29.62;53.08
48796;BME280;34607;48.520;-1.330;2023-06-22T13:05:57;100555.19;;;29.39;51.32
48796;BME280;34607;48.520;-1.330;2023-06-22T13:08:24;100582.03;;;29.36;54.02
48796;BME280;34607;48.520;-1.330;2023-06-22T13:10:51;100580.00;;;29.56;53.86
48796;BME280;34607;48.520;-1.330;2023-06-22T13:13:18;100565.72;;;29.71;54.01
48796;BME280;34607;48.520;-1.330;2023-06-22T13:15:45;100580.56;;;29.77;52.72
48796;BME280;34607;48.520;-1.330;2023-06-22T13:18:14;100585.34;;;29.86;53.11
48796;BME280;34607;48.520;-1.330;2023-06-22T13:20:41;100583.25;;;30.05;53.59
48796;BME280;34607;48.520;-1.330;2023-06-22T13:23:11;100581.66;;;29.42;54.23
48796;BME280;34607;48.520;-1.330;2023-06-22T13:25:38;100586.63;;;29.18;54.43
48796;BME280;34607;48.520;-1.330;2023-06-22T13:28:05;100592.00;;;28.53;54.43
48796;BME280;34607;48.520;-1.330;2023-06-22T13:30:32;100596.34;;;28.87;54.46
48796;BME280;34607;48.520;-1.330;2023-06-22T13:32:59;100598.31;;;29.16;54.18
48796;BME280;34607;48.520;-1.330;2023-06-22T13:35:28;100597.22;;;29.04;54.91
48796;BME280;34607;48.520;-1.330;2023-06-22T13:37:58;100600.31;;;29.12;55.12
48796;BME280;34607;48.520;-1.330;2023-06-22T13:40:25;100592.72;;;29.04;54.54
48796;BME280;34607;48.520;-1.330;2023-06-22T13:42:52;100584.81;;;29.03;55.87
48796;BME280;34607;48.520;-1.330;2023-06-22T13:45:19;100601.50;;;28.90;55.32
48796;BME280;34607;48.520;-1.330;2023-06-22T13:47:46;100608.75;;;29.20;55.95
48796;BME280;34607;48.520;-1.330;2023-06-22T13:50:13;100609.75;;;29.33;54.00
48796;BME280;34607;48.520;-1.330;2023-06-22T13:52:42;100611.25;;;28.91;55.31
48796;BME280;34607;48.520;-1.330;2023-06-22T13:55:12;100614.81;;;29.06;55.75
48796;BME280;34607;48.520;-1.330;2023-06-22T13:57:40;100615.53;;;29.10;56.02
48796;BME280;34607;48.520;-1.330;2023-06-22T14:00:08;100620.06;;;29.08;54.58
48796;BME280;34607;48.520;-1.330;2023-06-22T14:02:38;100618.88;;;28.98;55.08
48796;BME280;34607;48.520;-1.330;2023-06-22T14:05:05;100613.13;;;29.05;55.40
48796;BME280;34607;48.520;-1.330;2023-06-22T14:07:33;100622.84;;;28.90;56.23
48796;BME280;34607;48.520;-1.330;2023-06-22T14:10:09;100619.63;;;28.52;57.27
48796;BME280;34607;48.520;-1.330;2023-06-22T14:12:41;100616.66;;;28.74;56.85
48796;BME280;34607;48.520;-1.330;2023-06-22T14:15:10;100631.69;;;28.75;56.91
48796;BME280;34607;48.520;-1.330;2023-06-22T14:17:38;100624.91;;;28.69;56.64
48796;BME280;34607;48.520;-1.330;2023-06-22T14:20:06;100624.56;;;28.75;56.22
48796;BME280;34607;48.520;-1.330;2023-06-22T14:22:34;100623.53;;;28.94;55.90
48796;BME280;34607;48.520;-1.330;2023-06-22T14:25:01;100625.97;;;28.16;56.35
48796;BME280;34607;48.520;-1.330;2023-06-22T14:27:30;100624.03;;;28.02;57.94
48796;BME280;34607;48.520;-1.330;2023-06-22T14:29:57;100642.47;;;28.23;57.68
48796;BME280;34607;48.520;-1.330;2023-06-22T14:32:24;100635.16;;;28.44;57.15
48796;BME280;34607;48.520;-1.330;2023-06-22T14:34:51;100635.31;;;28.07;57.61
48796;BME280;34607;48.520;-1.330;2023-06-22T14:37:18;100638.34;;;27.99;58.26
48796;BME280;34607;48.520;-1.330;2023-06-22T14:39:46;100639.63;;;27.92;58.60
48796;BME280;34607;48.520;-1.330;2023-06-22T14:42:13;100633.72;;;27.86;58.53
48796;BME280;34607;48.520;-1.330;2023-06-22T14:44:42;100642.06;;;27.43;59.02
48796;BME280;34607;48.520;-1.330;2023-06-22T14:47:09;100649.50;;;27.54;58.82
48796;BME280;34607;48.520;-1.330;2023-06-22T14:49:36;100638.34;;;27.28;59.61
48796;BME280;34607;48.520;-1.330;2023-06-22T14:52:04;100635.53;;;26.55;60.03
48796;BME280;34607;48.520;-1.330;2023-06-22T14:54:31;100646.81;;;26.00;62.02
48796;BME280;34607;48.520;-1.330;2023-06-22T14:56:58;100653.81;;;26.61;61.38
48796;BME280;34607;48.520;-1.330;2023-06-22T14:59:25;100651.72;;;26.69;61.38
48796;BME280;34607;48.520;-1.330;2023-06-22T15:01:54;100649.28;;;26.65;61.38
48796;BME280;34607;48.520;-1.330;2023-06-22T15:04:21;100640.03;;;26.34;62.27
48796;BME280;34607;48.520;-1.330;2023-06-22T15:06:48;100650.59;;;26.15;62.48
48796;BME280;34607;48.520;-1.330;2023-06-22T15:09:15;100664.75;;;25.93;63.39
48796;BME280;34607;48.520;-1.330;2023-06-22T15:11:42;100647.41;;;26.27;63.78
48796;BME280;34607;48.520;-1.330;2023-06-22T15:14:09;100648.44;;;26.23;63.60
48796;BME280;34607;48.520;-1.330;2023-06-22T15:16:36;100655.16;;;26.51;62.95
48796;BME280;34607;48.520;-1.330;2023-06-22T15:19:04;100649.34;;;26.24;62.84
48796;BME280;34607;48.520;-1.330;2023-06-22T15:21:31;100661.34;;;26.12;63.92
48796;BME280;34607;48.520;-1.330;2023-06-22T15:23:58;100664.84;;;25.70;64.58
48796;BME280;34607;48.520;-1.330;2023-06-22T15:26:25;100669.75;;;25.58;66.17
48796;BME280;34607;48.520;-1.330;2023-06-22T15:28:52;100667.50;;;25.70;66.61
48796;BME280;34607;48.520;-1.330;2023-06-22T15:31:20;100645.59;;;25.44;66.95
48796;BME280;34607;48.520;-1.330;2023-06-22T15:33:47;100663.13;;;25.24;68.02
48796;BME280;34607;48.520;-1.330;2023-06-22T15:36:16;100649.69;;;25.51;67.83
48796;BME280;34607;48.520;-1.330;2023-06-22T15:38:43;100661.00;;;25.34;68.18
48796;BME280;34607;48.520;-1.330;2023-06-22T15:41:10;100657.25;;;25.40;68.07
48796;BME280;34607;48.520;-1.330;2023-06-22T15:43:37;100650.16;;;25.83;67.35
48796;BME280;34607;48.520;-1.330;2023-06-22T15:46:04;100649.00;;;26.11;66.71
48796;BME280;34607;48.520;-1.330;2023-06-22T15:48:31;100658.69;;;26.32;67.25
48796;BME280;34607;48.520;-1.330;2023-06-22T15:50:58;100659.53;;;26.33;67.38
48796;BME280;34607;48.520;-1.330;2023-06-22T15:53:27;100659.00;;;26.04;67.54
48796;BME280;34607;48.520;-1.330;2023-06-22T15:55:54;100666.56;;;25.50;69.66
48796;BME280;34607;48.520;-1.330;2023-06-22T15:58:21;100677.56;;;25.17;71.14
48796;BME280;34607;48.520;-1.330;2023-06-22T16:00:48;100674.63;;;25.47;69.19
48796;BME280;34607;48.520;-1.330;2023-06-22T16:03:15;100683.59;;;25.65;69.40
48796;BME280;34607;48.520;-1.330;2023-06-22T16:05:42;100678.13;;;25.70;69.56
48796;BME280;34607;48.520;-1.330;2023-06-22T16:08:10;100666.28;;;25.34;70.17
48796;BME280;34607;48.520;-1.330;2023-06-22T16:10:39;100677.72;;;25.36;70.91
48796;BME280;34607;48.520;-1.330;2023-06-22T16:13:06;100679.00;;;25.02;72.43
48796;BME280;34607;48.520;-1.330;2023-06-22T16:15:34;100685.84;;;25.08;72.83
48796;BME280;34607;48.520;-1.330;2023-06-22T16:18:01;100671.84;;;25.04;71.79
48796;BME280;34607;48.520;-1.330;2023-06-22T16:20:28;100681.81;;;24.98;72.19
48796;BME280;34607;48.520;-1.330;2023-06-22T16:22:55;100689.44;;;25.07;73.00
48796;BME280;34607;48.520;-1.330;2023-06-22T16:25:22;100692.41;;;25.21;73.33
48796;BME280;34607;48.520;-1.330;2023-06-22T16:27:50;100690.56;;;25.00;74.13
48796;BME280;34607;48.520;-1.330;2023-06-22T16:30:17;100689.59;;;24.79;74.47
48796;BME280;34607;48.520;-1.330;2023-06-22T16:32:51;100701.56;;;24.65;75.49
48796;BME280;34607;48.520;-1.330;2023-06-22T16:35:19;100667.34;;;24.61;75.53
48796;BME280;34607;48.520;-1.330;2023-06-22T16:37:46;100680.97;;;24.74;76.50
48796;BME280;34607;48.520;-1.330;2023-06-22T16:40:13;100683.50;;;24.52;77.06
48796;BME280;34607;48.520;-1.330;2023-06-22T16:42:40;100687.94;;;24.51;77.38
48796;BME280;34607;48.520;-1.330;2023-06-22T16:45:10;100696.16;;;24.43;77.83
48796;BME280;34607;48.520;-1.330;2023-06-22T16:47:39;100684.06;;;24.36;77.65
48796;BME280;34607;48.520;-1.330;2023-06-22T16:50:07;100695.19;;;24.46;77.28
48796;BME280;34607;48.520;-1.330;2023-06-22T16:52:34;100695.63;;;23.82;77.98
48796;BME280;34607;48.520;-1.330;2023-06-22T16:55:03;100703.19;;;23.94;78.21
48796;BME280;34607;48.520;-1.330;2023-06-22T16:57:31;100687.06;;;24.00;77.50
48796;BME280;34607;48.520;-1.330;2023-06-22T16:59:59;100706.16;;;23.83;78.92
48796;BME280;34607;48.520;-1.330;2023-06-22T17:02:28;100683.50;;;23.74;77.65
48796;BME280;34607;48.520;-1.330;2023-06-22T17:04:58;100703.47;;;23.85;76.64
48796;BME280;34607;48.520;-1.330;2023-06-22T17:07:26;100700.25;;;24.02;75.77
48796;BME280;34607;48.520;-1.330;2023-06-22T17:09:56;100712.72;;;23.98;74.81
48796;BME280;34607;48.520;-1.330;2023-06-22T17:12:24;100712.09;;;23.90;74.55
48796;BME280;34607;48.520;-1.330;2023-06-22T17:14:52;100713.34;;;23.78;74.48
48796;BME280;34607;48.520;-1.330;2023-06-22T17:17:19;100685.16;;;23.50;75.06
48796;BME280;34607;48.520;-1.330;2023-06-22T17:19:51;100724.84;;;23.49;76.53
48796;BME280;34607;48.520;-1.330;2023-06-22T17:22:18;100724.53;;;23.31;76.67
48796;BME280;34607;48.520;-1.330;2023-06-22T17:24:46;100738.75;;;23.27;77.57
48796;BME280;34607;48.520;-1.330;2023-06-22T17:27:14;100737.06;;;23.25;78.10
48796;BME280;34607;48.520;-1.330;2023-06-22T17:30:03;100734.06;;;23.07;78.39
48796;BME280;34607;48.520;-1.330;2023-06-22T17:32:30;100739.38;;;23.06;78.28
48796;BME280;34607;48.520;-1.330;2023-06-22T17:34:59;100747.09;;;23.13;78.15
48796;BME280;34607;48.520;-1.330;2023-06-22T17:37:26;100750.06;;;22.99;78.50
48796;BME280;34607;48.520;-1.330;2023-06-22T17:39:53;100756.41;;;22.94;78.11
48796;BME280;34607;48.520;-1.330;2023-06-22T17:42:23;100748.97;;;22.77;79.08
48796;BME280;34607;48.520;-1.330;2023-06-22T17:44:51;100755.25;;;22.73;79.41
48796;BME280;34607;48.520;-1.330;2023-06-22T17:47:23;100753.97;;;22.88;79.34
48796;BME280;34607;48.520;-1.330;2023-06-22T17:49:50;100754.84;;;22.87;79.13
48796;BME280;34607;48.520;-1.330;2023-06-22T17:52:19;100760.63;;;22.68;79.66
48796;BME280;34607;48.520;-1.330;2023-06-22T17:54:50;100770.53;;;22.60;79.79
48796;BME280;34607;48.520;-1.330;2023-06-22T17:57:17;100767.03;;;22.59;80.48
48796;BME280;34607;48.520;-1.330;2023-06-22T17:59:47;100767.13;;;22.56;80.67
48796;BME280;34607;48.520;-1.330;2023-06-22T18:02:20;100769.34;;;22.39;81.06
48796;BME280;34607;48.520;-1.330;2023-06-22T18:04:48;100758.84;;;22.36;81.51
48796;BME280;34607;48.520;-1.330;2023-06-22T18:07:16;100768.56;;;22.35;80.97
48796;BME280;34607;48.520;-1.330;2023-06-22T18:09:45;100778.00;;;22.44;80.71
48796;BME280;34607;48.520;-1.330;2023-06-22T18:12:14;100773.75;;;22.38;80.48
48796;BME280;34607;48.520;-1.330;2023-06-22T18:14:42;100775.22;;;22.14;82.14
48796;BME280;34607;48.520;-1.330;2023-06-22T18:17:09;100781.41;;;22.12;80.85
48796;BME280;34607;48.520;-1.330;2023-06-22T18:19:37;100787.50;;;21.78;82.50
48796;BME280;34607;48.520;-1.330;2023-06-22T18:22:05;100788.03;;;21.94;82.68
48796;BME280;34607;48.520;-1.330;2023-06-22T18:24:33;100781.00;;;21.93;82.80
48796;BME280;34607;48.520;-1.330;2023-06-22T18:27:04;100786.31;;;21.91;81.64
48796;BME280;34607;48.520;-1.330;2023-06-22T18:29:32;100788.34;;;21.80;82.20
48796;BME280;34607;48.520;-1.330;2023-06-22T18:31:59;100789.19;;;21.82;82.42
48796;BME280;34607;48.520;-1.330;2023-06-22T18:34:26;100787.34;;;21.85;81.86
48796;BME280;34607;48.520;-1.330;2023-06-22T18:36:56;100791.75;;;21.85;81.75
48796;BME280;34607;48.520;-1.330;2023-06-22T18:39:25;100801.63;;;21.75;82.38
48796;BME280;34607;48.520;-1.330;2023-06-22T18:41:53;100797.38;;;21.69;82.97
48796;BME280;34607;48.520;-1.330;2023-06-22T18:44:27;100794.63;;;21.73;82.79
48796;BME280;34607;48.520;-1.330;2023-06-22T18:46:57;100780.81;;;21.63;82.84
48796;BME280;34607;48.520;-1.330;2023-06-22T18:49:30;100760.25;;;21.38;83.50
48796;BME280;34607;48.520;-1.330;2023-06-22T18:52:03;100787.25;;;21.49;83.90
48796;BME280;34607;48.520;-1.330;2023-06-22T18:54:33;100799.72;;;21.40;85.05
48796;BME280;34607;48.520;-1.330;2023-06-22T18:57:11;100798.00;;;21.39;85.56
48796;BME280;34607;48.520;-1.330;2023-06-22T18:59:48;100800.66;;;21.39;85.88
48796;BME280;34607;48.520;-1.330;2023-06-22T19:02:34;100793.44;;;21.45;85.86
48796;BME280;34607;48.520;-1.330;2023-06-22T19:05:06;100802.25;;;21.47;86.23
48796;BME280;34607;48.520;-1.330;2023-06-22T19:07:56;100802.38;;;21.40;86.10
48796;BME280;34607;48.520;-1.330;2023-06-22T19:10:25;100803.28;;;21.39;86.18
48796;BME280;34607;48.520;-1.330;2023-06-22T19:12:53;100809.53;;;21.33;86.22
48796;BME280;34607;48.520;-1.330;2023-06-22T19:15:29;100799.25;;;21.21;86.06
48796;BME280;34607;48.520;-1.330;2023-06-22T19:17:59;100795.25;;;21.01;85.92
48796;BME280;34607;48.520;-1.330;2023-06-22T19:20:32;100808.50;;;20.97;86.19
48796;BME280;34607;48.520;-1.330;2023-06-22T19:22:59;100803.16;;;21.01;86.05
48796;BME280;34607;48.520;-1.330;2023-06-22T19:25:27;100803.91;;;21.08;86.02
48796;BME280;34607;48.520;-1.330;2023-06-22T19:27:56;100813.72;;;21.00;85.35
48796;BME280;34607;48.520;-1.330;2023-06-22T19:30:25;100821.66;;;20.97;85.20
48796;BME280;34607;48.520;-1.330;2023-06-22T19:32:52;100827.09;;;20.89;85.30
48796;BME280;34607;48.520;-1.330;2023-06-22T19:35:22;100825.34;;;20.88;85.26
48796;BME280;34607;48.520;-1.330;2023-06-22T19:37:49;100826.44;;;20.76;85.42
48796;BME280;34607;48.520;-1.330;2023-06-22T19:40:16;100826.53;;;20.70;85.63
48796;BME280;34607;48.520;-1.330;2023-06-22T19:42:44;100832.56;;;20.76;85.87